createdAt,value
2017-07-24T00:00:08.857Z,1.2
2017-07-24T00:01:09.043Z,1.2
2017-07-24T00:02:08.999Z,0.9
2017-07-24T00:03:09.094Z,1
2017-07-24T00:04:09.172Z,0.8
2017-07-24T00:05:09.231Z,0.7
2017-07-24T00:06:09.301Z,0.8
2017-07-24T00:07:09.368Z,1.1
2017-07-24T00:08:09.459Z,0.9
2017-07-24T00:09:09.510Z,0.6
2017-07-24T00:10:09.581Z,1
2017-07-24T00:11:09.654Z,0.9
2017-07-24T00:12:09.725Z,0.9
2017-07-24T00:13:09.804Z,0.7
2017-07-24T00:14:09.896Z,1.2
2017-07-24T00:15:09.975Z,0.9
2017-07-24T00:16:10.015Z,1
2017-07-24T00:17:10.542Z,1
2017-07-24T00:18:10.158Z,0.9
2017-07-24T00:19:10.234Z,0.8
2017-07-24T00:20:10.328Z,0.9
2017-07-24T00:21:10.381Z,0.9
2017-07-24T00:22:10.444Z,0.9
2017-07-24T00:23:12.058Z,1.3
2017-07-24T00:24:10.582Z,0.9
2017-07-24T00:25:10.903Z,1.2
2017-07-24T00:26:10.729Z,1
2017-07-24T00:27:10.801Z,1
2017-07-24T00:28:10.873Z,0.7
2017-07-24T00:29:10.947Z,1.1
2017-07-24T00:30:11.133Z,0.7
2017-07-24T00:31:11.110Z,0.9
2017-07-24T00:32:11.160Z,0.9
2017-07-24T00:33:11.239Z,0.9
2017-07-24T00:34:11.311Z,0.7
2017-07-24T00:35:11.379Z,0.9
2017-07-24T00:36:11.474Z,0.7
2017-07-24T00:37:11.526Z,1
2017-07-24T00:38:11.594Z,0.9
2017-07-24T00:39:11.689Z,1.1
2017-07-24T00:40:11.736Z,1
2017-07-24T00:41:11.813Z,0.8
2017-07-24T00:42:13.324Z,1.2
2017-07-24T00:43:12.032Z,0.7
2017-07-24T00:44:12.030Z,0.9
2017-07-24T00:45:12.098Z,1
2017-07-24T00:46:12.172Z,1
2017-07-24T00:47:12.244Z,1.1
2017-07-24T00:48:12.333Z,1
2017-07-24T00:49:12.391Z,1.1
2017-07-24T00:50:12.457Z,1
2017-07-24T00:51:12.536Z,1.1
2017-07-24T00:52:12.603Z,0.9
2017-07-24T00:53:12.699Z,1
2017-07-24T00:54:12.768Z,0.7
2017-07-24T00:55:12.822Z,0.7
2017-07-24T00:56:12.914Z,0.9
2017-07-24T00:57:12.967Z,0.8
2017-07-24T00:58:15.902Z,1.4
2017-07-24T00:59:13.102Z,1.1
2017-07-24T01:00:13.188Z,0.9
2017-07-24T01:01:13.261Z,1.2
2017-07-24T01:02:13.331Z,0.6
2017-07-24T01:03:13.403Z,0.9
2017-07-24T01:04:13.491Z,0.7
2017-07-24T01:05:13.543Z,0.9
2017-07-24T01:06:13.612Z,1.2
2017-07-24T01:07:13.690Z,1.1
2017-07-24T01:08:17.066Z,0.9
2017-07-24T01:09:13.963Z,1.1
2017-07-24T01:10:14.052Z,0.9
2017-07-24T01:11:13.978Z,1.2
2017-07-24T01:12:17.625Z,1
2017-07-24T01:13:14.146Z,1.2
2017-07-24T01:14:14.196Z,1
2017-07-24T01:15:14.280Z,0.8
2017-07-24T01:16:14.344Z,0.8
2017-07-24T01:17:14.407Z,0.8
2017-07-24T01:18:15.949Z,0.9
2017-07-24T01:19:14.550Z,0.7
2017-07-24T01:20:14.645Z,0.8
2017-07-24T01:21:14.697Z,1.2
2017-07-24T01:22:14.795Z,0.9
2017-07-24T01:23:14.839Z,0.9
2017-07-24T01:24:14.948Z,1
2017-07-24T01:25:14.989Z,0.9
2017-07-24T01:26:15.083Z,1.4
2017-07-24T01:27:15.128Z,1
2017-07-24T01:28:15.227Z,0.9
2017-07-24T01:29:15.303Z,1.2
2017-07-24T01:30:15.345Z,0.9
2017-07-24T01:31:15.433Z,1.2
2017-07-24T01:32:15.483Z,1
2017-07-24T01:33:15.561Z,0.8
2017-07-24T01:34:15.738Z,1.1
2017-07-24T01:35:15.700Z,1
2017-07-24T01:36:15.773Z,0.9
2017-07-24T01:37:15.869Z,0.9
2017-07-24T01:38:15.914Z,0.9
2017-07-24T01:39:16.015Z,1.1
2017-07-24T01:40:16.060Z,0.9
2017-07-24T01:41:16.243Z,0.7
2017-07-24T01:42:16.233Z,0.8
2017-07-24T01:43:16.297Z,0.9
2017-07-24T01:44:16.363Z,0.9
2017-07-24T01:45:16.423Z,0.9
2017-07-24T01:46:16.498Z,0.8
2017-07-24T01:47:16.569Z,0.9
2017-07-24T01:48:16.654Z,1.1
2017-07-24T01:49:16.716Z,1.2
2017-07-24T01:50:16.779Z,1
2017-07-24T01:51:16.861Z,1.2
2017-07-24T01:52:16.927Z,0.9
2017-07-24T01:53:17.001Z,1.1
2017-07-24T01:54:21.344Z,0.9
2017-07-24T01:55:17.152Z,0.8
2017-07-24T01:56:17.213Z,0.9
2017-07-24T01:57:17.287Z,1.3
2017-07-24T01:58:17.355Z,0.8
2017-07-24T01:59:17.434Z,1.2
2017-07-24T02:00:17.528Z,1
2017-07-24T02:01:17.672Z,1.2
2017-07-24T02:02:17.652Z,1
2017-07-24T02:03:17.720Z,1
2017-07-24T02:04:17.792Z,0.8
2017-07-24T02:05:17.886Z,1
2017-07-24T02:06:17.963Z,1.3
2017-07-24T02:07:18.025Z,0.7
2017-07-24T02:08:18.096Z,1
2017-07-24T02:09:18.155Z,0.8
2017-07-24T02:10:21.135Z,0.9
2017-07-24T02:11:18.364Z,0.8
2017-07-24T02:12:18.434Z,0.9
2017-07-24T02:13:18.481Z,0.8
2017-07-24T02:14:18.516Z,1
2017-07-24T02:15:18.590Z,1.1
2017-07-24T02:16:18.662Z,0.8
2017-07-24T02:17:18.731Z,1
2017-07-24T02:18:18.837Z,1.1
2017-07-24T02:19:18.939Z,0.8
2017-07-24T02:20:18.990Z,1.2
2017-07-24T02:21:19.340Z,0.9
2017-07-24T02:22:19.092Z,0.8
2017-07-24T02:23:19.188Z,1
2017-07-24T02:24:19.272Z,1.1
2017-07-24T02:25:19.308Z,1.2
2017-07-24T02:26:19.406Z,1.1
2017-07-24T02:27:19.460Z,1.2
2017-07-24T02:28:19.528Z,0.9
2017-07-24T02:29:19.620Z,1.1
2017-07-24T02:30:19.688Z,0.9
2017-07-24T02:31:19.786Z,1.3
2017-07-24T02:32:19.836Z,0.7
2017-07-24T02:33:19.890Z,0.9
2017-07-24T02:34:19.957Z,0.8
2017-07-24T02:35:20.056Z,1.3
2017-07-24T02:36:20.107Z,0.8
2017-07-24T02:37:20.191Z,1
2017-07-24T02:38:20.250Z,0.9
2017-07-24T02:39:20.329Z,1.1
2017-07-24T02:40:20.397Z,1
2017-07-24T02:41:20.488Z,0.9
2017-07-24T02:42:21.353Z,0.9
2017-07-24T02:43:20.616Z,0.9
2017-07-24T02:44:20.674Z,1.2
2017-07-24T02:45:20.748Z,0.8
2017-07-24T02:46:20.820Z,0.9
2017-07-24T02:47:20.914Z,0.8
2017-07-24T02:48:20.963Z,1.2
2017-07-24T02:49:21.033Z,0.9
2017-07-24T02:50:21.107Z,0.7
2017-07-24T02:51:21.182Z,0.8
2017-07-24T02:52:21.250Z,1.3
2017-07-24T02:53:21.379Z,0.8
2017-07-24T02:54:21.472Z,1.1
2017-07-24T02:56:21.569Z,1.1
2017-07-24T02:57:21.611Z,1
2017-07-24T02:58:21.731Z,0.8
2017-07-24T02:59:24.468Z,0.9
2017-07-24T03:00:21.902Z,0.8
2017-07-24T03:01:21.909Z,0.9
2017-07-24T03:02:21.969Z,1.2
2017-07-24T03:03:22.051Z,1.3
2017-07-24T03:04:22.214Z,0.7
2017-07-24T03:05:22.190Z,1
2017-07-24T03:06:22.257Z,0.8
2017-07-24T03:07:22.332Z,0.9
2017-07-24T03:08:22.402Z,0.8
2017-07-24T03:09:22.508Z,0.9
2017-07-24T03:10:22.550Z,1.1
2017-07-24T03:11:22.644Z,1.2
2017-07-24T03:12:22.690Z,1.3
2017-07-24T03:13:22.764Z,1
2017-07-24T03:14:22.842Z,1.2
2017-07-24T03:15:22.936Z,1
2017-07-24T03:16:22.981Z,0.8
2017-07-24T03:17:23.053Z,0.8
2017-07-24T03:18:23.125Z,1
2017-07-24T03:19:23.204Z,1
2017-07-24T03:20:23.273Z,1
2017-07-24T03:21:23.363Z,1
2017-07-24T03:22:23.416Z,1.1
2017-07-24T03:23:23.490Z,0.7
2017-07-24T03:24:23.578Z,0.9
2017-07-24T03:25:23.627Z,1.2
2017-07-24T03:26:23.726Z,0.7
2017-07-24T03:27:23.774Z,0.9
2017-07-24T03:28:25.120Z,1.1
2017-07-24T03:29:23.922Z,1
2017-07-24T03:30:23.998Z,1.1
2017-07-24T03:31:24.064Z,0.8
2017-07-24T03:32:24.157Z,1
2017-07-24T03:33:24.213Z,1.2
2017-07-24T03:34:24.282Z,1.3
2017-07-24T03:35:24.357Z,1
2017-07-24T03:36:24.428Z,1.3
2017-07-24T03:37:24.521Z,1.1
2017-07-24T03:38:26.931Z,1
2017-07-24T03:39:24.664Z,1.2
2017-07-24T03:40:24.721Z,0.8
2017-07-24T03:41:24.809Z,1.2
2017-07-24T03:42:24.869Z,0.9
2017-07-24T03:43:24.957Z,1.2
2017-07-24T03:44:29.156Z,1
2017-07-24T03:45:25.074Z,1.4
2017-07-24T03:46:25.148Z,1.4
2017-07-24T03:47:25.226Z,0.9
2017-07-24T03:48:25.304Z,1
2017-07-24T03:49:25.390Z,1
2017-07-24T03:50:25.569Z,1
2017-07-24T03:51:25.510Z,1.1
2017-07-24T03:52:25.585Z,0.8
2017-07-24T03:53:25.677Z,1
2017-07-24T03:54:25.747Z,0.6
2017-07-24T03:55:25.798Z,1.1
2017-07-24T03:56:25.889Z,1
2017-07-24T03:57:25.939Z,1
2017-07-24T03:58:29.771Z,1.4
2017-07-24T03:59:26.078Z,1.1
2017-07-24T04:00:26.179Z,1
2017-07-24T04:01:26.222Z,1.1
2017-07-24T04:02:26.300Z,0.9
2017-07-24T04:03:26.511Z,0.7
2017-07-24T04:04:26.444Z,0.9
2017-07-24T04:05:26.531Z,0.9
2017-07-24T04:06:26.590Z,1.3
2017-07-24T04:07:26.655Z,1
2017-07-24T04:08:26.726Z,1
2017-07-24T04:09:26.804Z,0.9
2017-07-24T04:10:26.871Z,1.1
2017-07-24T04:11:26.968Z,1.1
2017-07-24T04:12:27.034Z,1
2017-07-24T04:13:43.470Z,1.3
2017-07-24T04:14:37.074Z,1.3
2017-07-24T04:15:30.582Z,0.9
2017-07-24T04:16:27.307Z,1.1
2017-07-24T04:17:27.396Z,1.3
2017-07-24T04:18:27.450Z,1
2017-07-24T04:19:27.517Z,1.1
2017-07-24T04:20:28.652Z,1
2017-07-24T04:21:27.663Z,1
2017-07-24T04:22:27.763Z,0.9
2017-07-24T04:23:27.864Z,0.9
2017-07-24T04:24:27.916Z,1
2017-07-24T04:25:27.951Z,1.1
2017-07-24T04:26:28.055Z,1
2017-07-24T04:27:28.099Z,1.3
2017-07-24T04:28:28.202Z,0.9
2017-07-24T04:29:28.251Z,0.9
2017-07-24T04:30:28.313Z,1.1
2017-07-24T04:31:28.399Z,1.2
2017-07-24T04:32:28.462Z,0.7
2017-07-24T04:33:28.554Z,1.1
2017-07-24T04:34:32.348Z,1
2017-07-24T04:35:28.678Z,0.9
2017-07-24T04:36:28.746Z,1.3
2017-07-24T04:37:31.811Z,1
2017-07-24T04:38:28.892Z,1.2
2017-07-24T04:39:28.984Z,1
2017-07-24T04:40:29.048Z,0.9
2017-07-24T04:41:29.109Z,1
2017-07-24T04:42:29.180Z,1.1
2017-07-24T04:43:29.273Z,0.9
2017-07-24T04:44:29.324Z,1.2
2017-07-24T04:45:29.420Z,1.3
2017-07-24T04:46:29.476Z,1.1
2017-07-24T04:47:29.539Z,1.1
2017-07-24T04:48:29.617Z,1.2
2017-07-24T04:49:29.687Z,1.2
2017-07-24T04:50:29.779Z,1
2017-07-24T04:51:29.828Z,1
2017-07-24T04:52:32.937Z,1.1
2017-07-24T04:53:29.974Z,1.1
2017-07-24T04:54:30.044Z,1.1
2017-07-24T04:55:30.119Z,0.9
2017-07-24T04:56:33.154Z,0.9
2017-07-24T04:57:30.271Z,0.8
2017-07-24T04:58:33.702Z,1.1
2017-07-24T04:59:30.409Z,1.2
2017-07-24T05:00:33.969Z,1.3
2017-07-24T05:01:34.148Z,1.1
2017-07-24T05:02:30.633Z,1.1
2017-07-24T05:03:30.696Z,1
2017-07-24T05:04:30.768Z,1
2017-07-24T05:05:30.843Z,0.9
2017-07-24T05:06:30.909Z,0.8
2017-07-24T05:07:31.002Z,0.9
2017-07-24T05:08:31.056Z,1.1
2017-07-24T05:09:31.127Z,1.2
2017-07-24T05:10:31.197Z,1.3
2017-07-24T05:11:31.327Z,0.9
2017-07-24T05:12:31.352Z,0.9
2017-07-24T05:13:39.199Z,1
2017-07-24T05:14:44.936Z,1.4
2017-07-24T05:15:31.562Z,1.1
2017-07-24T05:16:31.639Z,0.9
2017-07-24T05:17:31.706Z,0.8
2017-07-24T05:18:34.124Z,1.1
2017-07-24T05:19:31.875Z,1
2017-07-24T05:20:31.920Z,1.3
2017-07-24T05:21:38.503Z,1.4
2017-07-24T05:22:32.112Z,1
2017-07-24T05:23:33.482Z,1.1
2017-07-24T05:24:32.226Z,1
2017-07-24T05:25:32.309Z,1.4
2017-07-24T05:26:32.356Z,1.5
2017-07-24T05:27:32.430Z,1.3
2017-07-24T05:28:32.505Z,0.8
2017-07-24T05:29:32.596Z,0.9
2017-07-24T05:30:32.669Z,0.9
2017-07-24T05:31:32.812Z,1.4
2017-07-24T05:32:32.795Z,1.1
2017-07-24T05:33:32.867Z,1.3
2017-07-24T05:34:32.941Z,1.1
2017-07-24T05:35:33.010Z,0.9
2017-07-24T05:36:36.978Z,1.6
2017-07-24T05:37:36.917Z,1
2017-07-24T05:38:33.229Z,1.1
2017-07-24T05:39:33.304Z,1.2
2017-07-24T05:40:33.374Z,1.4
2017-07-24T05:41:33.447Z,1
2017-07-24T05:42:33.633Z,1
2017-07-24T05:43:33.591Z,1
2017-07-24T05:44:33.684Z,1.4
2017-07-24T05:45:33.731Z,1.3
2017-07-24T05:46:33.807Z,1
2017-07-24T05:47:33.882Z,1
2017-07-24T05:48:33.977Z,1.9
2017-07-24T05:49:34.026Z,1.4
2017-07-24T05:50:34.099Z,2.4
2017-07-24T05:51:34.171Z,2
2017-07-24T05:52:34.240Z,2.6
2017-07-24T05:53:38.031Z,2.5
2017-07-24T05:55:34.474Z,2.7
2017-07-24T05:56:36.160Z,2.5
2017-07-24T05:57:34.604Z,2
2017-07-24T05:58:34.680Z,2.5
2017-07-24T05:59:35.955Z,3.9
2017-07-24T06:00:34.816Z,3
2017-07-24T06:01:34.886Z,3.1
2017-07-24T06:02:35.344Z,2.9
2017-07-24T06:03:35.034Z,2.6
2017-07-24T06:04:35.108Z,3
2017-07-24T06:06:35.272Z,3.2
2017-07-24T06:07:35.322Z,2.5
2017-07-24T06:08:35.392Z,3.5
2017-07-24T06:09:39.245Z,3.2
2017-07-24T06:10:35.561Z,2.3
2017-07-24T06:11:35.635Z,2.5
2017-07-24T06:12:35.684Z,3.4
2017-07-24T06:13:35.769Z,4
2017-07-24T06:14:35.826Z,4.5
2017-07-24T06:15:35.920Z,4
2017-07-24T06:16:35.978Z,3.9
2017-07-24T06:17:36.059Z,4.1
2017-07-24T06:18:36.115Z,3.6
2017-07-24T06:19:36.211Z,4.3
2017-07-24T06:20:36.255Z,5.3
2017-07-24T06:21:37.857Z,3.7
2017-07-24T06:22:41.923Z,3.8
2017-07-24T06:23:36.482Z,3.5
2017-07-24T06:24:36.612Z,3.9
2017-07-24T06:25:36.624Z,3.6
2017-07-24T06:26:36.735Z,4.3
2017-07-24T08:36:54.269Z,3
2017-07-24T08:45:42.093Z,4.2
2017-07-24T08:46:42.145Z,3.3
2017-07-24T08:47:42.217Z,2.8
2017-07-24T08:48:42.286Z,2.9
2017-07-24T08:49:42.388Z,3.3
2017-07-24T08:50:42.441Z,3.5
2017-07-24T08:51:42.526Z,3.3
2017-07-24T08:52:45.876Z,3.3
2017-07-24T08:53:42.650Z,2.9
2017-07-24T08:54:42.732Z,3.8
2017-07-24T08:55:45.115Z,3.4
2017-07-24T08:56:42.896Z,2.9
2017-07-24T08:57:42.969Z,2.3
2017-07-24T08:58:43.016Z,2.9
2017-07-24T08:59:43.085Z,2.2
2017-07-24T09:00:43.184Z,2.6
2017-07-24T09:01:43.228Z,2.8
2017-07-24T09:02:43.300Z,2.3
2017-07-24T09:03:43.522Z,2.3
2017-07-24T09:04:43.451Z,2.3
2017-07-24T09:05:43.520Z,2.9
2017-07-24T09:06:43.591Z,2.4
2017-07-24T09:07:43.676Z,2.8
2017-07-24T09:08:43.760Z,2.1
2017-07-24T09:09:43.835Z,2.2
2017-07-24T09:10:43.881Z,2.2
2017-07-24T09:11:43.965Z,2.2
2017-07-24T09:12:44.099Z,2.1
2017-07-24T09:13:44.105Z,3
2017-07-24T09:14:44.213Z,2.3
2017-07-24T09:15:44.444Z,2.6
2017-07-24T09:16:44.322Z,2.4
2017-07-24T09:17:44.486Z,2.8
2017-07-24T09:18:44.467Z,2.2
2017-07-24T09:19:44.545Z,2.9
2017-07-24T09:20:44.636Z,2.4
2017-07-24T09:21:44.725Z,2.7
2017-07-24T09:22:44.759Z,2.2
2017-07-24T09:23:44.863Z,2.3
2017-07-24T09:24:44.908Z,2.4
2017-07-24T09:25:45.069Z,2.4
2017-07-24T09:26:45.070Z,2.6
2017-07-24T09:27:45.120Z,2.5
2017-07-24T09:28:45.191Z,2.6
2017-07-24T09:29:45.269Z,3.1
2017-07-24T09:30:45.345Z,2.3
2017-07-24T09:31:45.419Z,2.2
2017-07-24T09:32:45.506Z,3.2
2017-07-24T09:33:45.556Z,2.8
2017-07-24T09:34:45.627Z,3.1
2017-07-24T09:35:48.328Z,2.5
2017-07-24T09:36:45.895Z,2.1
2017-07-24T09:37:45.872Z,2.4
2017-07-24T09:38:45.940Z,1.9
2017-07-24T09:39:45.990Z,1.9
2017-07-24T09:40:46.062Z,2.1
2017-07-24T09:41:49.939Z,1.8
2017-07-24T09:42:46.210Z,1.6
2017-07-24T09:43:46.301Z,1.9
2017-07-24T09:44:46.354Z,2.3
2017-07-24T09:45:46.430Z,1.6
2017-07-24T09:46:46.500Z,1.8
2017-07-24T09:47:46.573Z,2
2017-07-24T09:48:48.287Z,1.9
2017-07-24T09:49:46.906Z,1.8
2017-07-24T09:50:46.789Z,1.6
2017-07-24T09:51:46.861Z,1.8
2017-07-24T09:52:46.936Z,1.7
2017-07-24T09:53:47.028Z,1.7
2017-07-24T09:54:47.094Z,1.9
2017-07-24T09:55:51.792Z,2
2017-07-24T09:56:47.279Z,2
2017-07-24T09:57:47.308Z,1.5
2017-07-24T09:58:47.360Z,2.1
2017-07-24T09:59:47.437Z,1.5
2017-07-24T10:00:47.533Z,1.9
2017-07-24T10:01:47.579Z,1.8
2017-07-24T10:02:47.659Z,1.9
2017-07-24T10:03:47.723Z,1.7
2017-07-24T10:04:47.800Z,1.5
2017-07-24T10:05:47.875Z,1.7
2017-07-24T10:06:47.980Z,1.8
2017-07-24T10:07:48.015Z,2.5
2017-07-24T10:08:48.103Z,1.7
2017-07-24T10:09:48.163Z,2.2
2017-07-24T10:10:48.230Z,2
2017-07-24T10:11:48.301Z,1.8
2017-07-24T10:12:48.403Z,1.7
2017-07-24T10:13:48.734Z,1.3
2017-07-24T10:14:48.517Z,1.6
2017-07-24T10:15:48.595Z,1.5
2017-07-24T10:16:48.670Z,1.3
2017-07-24T10:17:48.784Z,1.6
2017-07-24T10:18:48.854Z,1.8
2017-07-24T10:19:48.882Z,1.6
2017-07-24T10:20:48.952Z,1.9
2017-07-24T10:21:49.073Z,1.5
2017-07-24T10:22:49.153Z,1.8
2017-07-24T10:23:49.188Z,1.3
2017-07-24T10:24:49.245Z,1.9
2017-07-24T10:25:49.317Z,1.6
2017-07-24T10:26:49.407Z,1.9
2017-07-24T10:27:49.483Z,1.5
2017-07-24T10:28:49.559Z,1.7
2017-07-24T10:29:49.609Z,1.7
2017-07-24T10:30:49.779Z,1.2
2017-07-24T10:31:52.666Z,1.1
2017-07-24T10:32:50.038Z,1.6
2017-07-24T10:33:49.904Z,1.3
2017-07-24T10:34:53.270Z,1.1
2017-07-24T10:35:50.051Z,1.6
2017-07-24T10:36:50.120Z,1.5
2017-07-24T10:37:50.214Z,1.6
2017-07-24T10:39:50.369Z,1.9
2017-07-24T10:40:50.433Z,1.3
2017-07-24T10:41:50.489Z,1.6
2017-07-24T10:42:50.553Z,1.4
2017-07-24T10:43:50.635Z,1.3
2017-07-24T10:44:50.720Z,1.3
2017-07-24T10:45:50.798Z,1.4
2017-07-24T10:46:50.917Z,1.6
2017-07-24T10:47:50.922Z,1.4
2017-07-24T10:48:51.012Z,1.3
2017-07-24T10:49:51.080Z,1.8
2017-07-24T10:50:51.142Z,1.5
2017-07-24T10:51:51.308Z,1.7
2017-07-24T10:52:51.284Z,1.4
2017-07-24T10:53:51.400Z,1.8
2017-07-24T10:54:51.435Z,1.7
2017-07-24T10:55:51.503Z,1.3
2017-07-24T10:56:51.588Z,1.3
2017-07-24T10:57:51.652Z,1.9
2017-07-24T10:58:51.725Z,1.8
2017-07-24T10:59:53.477Z,2
2017-07-24T11:00:51.956Z,1.6
2017-07-24T11:01:51.952Z,1.7
2017-07-24T11:02:52.030Z,1.3
2017-07-24T11:03:52.092Z,1.9
2017-07-24T11:04:55.179Z,1.6
2017-07-24T11:05:52.227Z,1.5
2017-07-24T11:06:52.309Z,2
2017-07-24T11:07:52.373Z,1.5
2017-07-24T11:08:52.461Z,1.4
2017-07-24T11:09:52.516Z,1.6
2017-07-24T11:10:52.610Z,1.7
2017-07-24T11:11:55.404Z,1.8
2017-07-24T11:12:52.732Z,2
2017-07-24T11:13:52.816Z,2.1
2017-07-24T11:14:55.267Z,2
2017-07-24T11:15:52.949Z,1.6
2017-07-24T11:16:53.029Z,1.8
2017-07-24T11:17:53.096Z,1.7
2017-07-24T11:18:53.168Z,1.8
2017-07-24T11:19:53.257Z,2.3
2017-07-24T11:20:53.315Z,1.7
2017-07-24T11:21:53.396Z,1.5
2017-07-24T11:22:53.495Z,1.3
2017-07-24T11:23:53.550Z,1.2
2017-07-24T11:24:53.958Z,1.7
2017-07-24T11:25:53.972Z,2.1
2017-07-24T11:26:53.774Z,2
2017-07-24T11:27:53.823Z,2
2017-07-24T11:28:53.904Z,1.7
2017-07-24T11:29:53.978Z,1.9
2017-07-24T11:30:54.082Z,2.4
2017-07-24T11:31:54.116Z,2.6
2017-07-24T11:32:54.191Z,2
2017-07-24T11:33:54.259Z,2.6
2017-07-24T11:34:54.336Z,2.4
2017-07-24T11:35:57.290Z,2.6
2017-07-24T11:37:01.069Z,2.3
2017-07-24T11:37:54.554Z,3.4
2017-07-24T11:38:54.628Z,3.4
2017-07-24T11:39:54.700Z,2.5
2017-07-24T11:40:54.770Z,2.4
2017-07-24T11:41:54.879Z,2.9
2017-07-24T11:42:54.919Z,2.1
2017-07-24T11:43:55.014Z,2
2017-07-24T11:44:55.064Z,2.4
2017-07-24T11:45:55.182Z,2.6
2017-07-24T11:46:55.210Z,2
2017-07-24T11:47:58.932Z,2.7
2017-07-24T11:48:55.352Z,2.4
2017-07-24T11:49:55.436Z,3.1
2017-07-24T11:50:55.507Z,2
2017-07-24T11:51:55.581Z,2.6
2017-07-24T11:52:55.660Z,2.3
2017-07-24T11:54:00.469Z,2.8
2017-07-24T11:54:56.075Z,2.8
2017-07-24T11:55:55.861Z,2.5
2017-07-24T11:57:00.263Z,2.2
2017-07-24T11:57:56.018Z,2.9
2017-07-24T11:58:56.083Z,3
2017-07-24T11:59:56.166Z,2.3
2017-07-24T12:00:56.225Z,2.6
2017-07-24T12:01:56.359Z,2.8
2017-07-24T12:02:56.368Z,3.1
2017-07-24T12:03:56.470Z,2.3
2017-07-24T12:04:56.515Z,3
2017-07-24T12:05:56.651Z,2
2017-07-24T12:06:56.732Z,2.5
2017-07-24T12:07:56.757Z,2
2017-07-24T12:08:56.808Z,2
2017-07-24T12:09:56.884Z,2.2
2017-07-24T12:10:56.985Z,2.1
2017-07-24T12:11:57.048Z,1.7
2017-07-24T12:12:57.103Z,1.6
2017-07-24T12:13:57.169Z,1.6
2017-07-24T12:14:57.242Z,1.5
2017-07-24T12:15:57.348Z,1.5
2017-07-24T12:16:57.385Z,1.9
2017-07-24T12:17:57.468Z,1.8
2017-07-24T12:18:58.320Z,1.5
2017-07-24T12:19:57.599Z,1.9
2017-07-24T12:20:57.673Z,1.5
2017-07-24T12:21:58.343Z,1.9
2017-07-24T12:22:57.847Z,1.9
2017-07-24T12:23:57.891Z,1.8
2017-07-24T12:24:57.976Z,1.6
2017-07-24T12:25:58.042Z,2
2017-07-24T12:26:58.117Z,2.1
2017-07-24T12:27:58.796Z,1.8
2017-07-24T12:28:58.255Z,1.6
2017-07-24T12:29:58.325Z,2
2017-07-24T12:30:58.407Z,2
2017-07-24T12:31:58.469Z,2
2017-07-24T12:33:00.011Z,1.9
2017-07-24T12:33:58.615Z,2
2017-07-24T12:34:58.733Z,1.8
2017-07-24T12:35:58.761Z,1.5
2017-07-24T12:36:58.832Z,2.1
2017-07-24T12:37:58.913Z,1.8
2017-07-24T12:38:59.112Z,1.7
2017-07-24T12:39:59.044Z,2.2
2017-07-24T12:40:59.124Z,2.3
2017-07-24T12:41:59.190Z,2
2017-07-24T12:42:59.309Z,1.8
2017-07-24T12:43:59.335Z,2.3
2017-07-24T12:44:59.430Z,1.7
2017-07-24T12:45:59.483Z,1.8
2017-07-24T12:46:59.555Z,2.1
2017-07-24T12:47:59.628Z,1.8
2017-07-24T12:48:59.695Z,1.6
2017-07-24T12:49:59.793Z,1.8
2017-07-24T12:50:59.852Z,1.4
2017-07-24T12:51:59.918Z,1.6
2017-07-24T12:53:00.003Z,1.8
2017-07-24T12:54:00.057Z,2.1
2017-07-24T12:55:00.127Z,2
2017-07-24T12:56:00.251Z,1.6
2017-07-24T12:57:01.166Z,1.9
2017-07-24T12:58:00.416Z,1.6
2017-07-24T12:59:00.419Z,1.6
2017-07-24T13:00:00.491Z,2
2017-07-24T13:01:00.592Z,1.8
2017-07-24T13:02:00.632Z,1.6
2017-07-24T13:03:00.704Z,1.5
2017-07-24T13:04:00.778Z,1.5
2017-07-24T13:05:00.846Z,1.7
2017-07-24T13:06:00.921Z,1.8
2017-07-24T13:07:01.017Z,1.4
2017-07-24T13:08:01.072Z,1.2
2017-07-24T13:09:01.137Z,1.7
2017-07-24T13:10:01.209Z,1.5
2017-07-24T13:11:01.282Z,1.9
2017-07-24T13:12:01.358Z,1.7
2017-07-24T13:13:01.442Z,1.6
2017-07-24T13:14:01.494Z,1.9
2017-07-24T13:15:01.741Z,1.8
2017-07-24T13:16:01.638Z,1.3
2017-07-24T13:17:01.712Z,1.4
2017-07-24T13:18:01.805Z,1.6
2017-07-24T13:19:01.861Z,1.5
2017-07-24T13:20:01.932Z,1.4
2017-07-24T13:21:02.025Z,1.6
2017-07-24T13:22:03.719Z,1.9
2017-07-24T13:23:02.174Z,1.5
2017-07-24T13:24:02.249Z,1.5
2017-07-24T13:25:02.282Z,1.5
2017-07-24T13:26:02.357Z,1.9
2017-07-24T13:27:02.429Z,1.3
2017-07-24T13:28:02.498Z,1.2
2017-07-24T13:29:02.593Z,1.5
2017-07-24T13:30:02.644Z,1.1
2017-07-24T13:31:02.777Z,1.4
2017-07-24T13:32:02.787Z,1.7
2017-07-24T13:33:02.857Z,1.3
2017-07-24T13:34:02.936Z,1.1
2017-07-24T13:35:03.015Z,1.2
2017-07-24T13:36:03.076Z,1.6
2017-07-24T13:37:03.197Z,1.1
2017-07-24T13:38:03.236Z,1.4
2017-07-24T13:39:03.291Z,1.7
2017-07-24T13:40:03.361Z,1.2
2017-07-24T13:41:03.453Z,1.1
2017-07-24T13:42:03.530Z,1.3
2017-07-24T13:43:08.761Z,1.7
2017-07-24T13:44:03.648Z,1.4
2017-07-24T13:45:03.720Z,1.3
2017-07-24T13:46:03.817Z,1.5
2017-07-24T13:47:03.874Z,1.4
2017-07-24T13:48:03.935Z,1
2017-07-24T13:49:04.033Z,1.2
2017-07-24T13:50:04.095Z,1.2
2017-07-24T13:51:04.153Z,1
2017-07-24T13:52:04.254Z,1.1
2017-07-24T13:53:04.315Z,1.3
2017-07-24T13:54:04.411Z,1.7
2017-07-24T13:55:04.441Z,1.2
2017-07-24T13:56:04.513Z,1.4
2017-07-24T13:57:04.593Z,1
2017-07-24T13:58:04.653Z,1.3
2017-07-24T13:59:04.755Z,1.4
2017-07-24T14:00:04.799Z,1.1
2017-07-24T14:01:04.873Z,1.3
2017-07-24T14:02:04.948Z,1.5
2017-07-24T14:03:05.017Z,1.2
2017-07-24T14:04:05.089Z,1.6
2017-07-24T14:05:05.190Z,1.4
2017-07-24T14:06:06.408Z,1.5
2017-07-24T14:07:05.413Z,1.3
2017-07-24T14:08:06.311Z,1.6
2017-07-24T14:09:05.447Z,1.7
2017-07-24T14:10:05.528Z,1.2
2017-07-24T14:11:05.612Z,1.2
2017-07-24T14:12:05.669Z,1.9
2017-07-24T14:13:05.750Z,1.3
2017-07-24T14:14:05.814Z,1.4
2017-07-24T14:15:05.885Z,1.3
2017-07-24T14:16:05.957Z,1.6
2017-07-24T14:17:06.037Z,2
2017-07-24T14:18:06.107Z,1.9
2017-07-24T14:19:06.189Z,2.2
2017-07-24T14:20:06.243Z,1.9
2017-07-24T14:21:06.318Z,1.3
2017-07-24T14:22:06.472Z,1.9
2017-07-24T14:23:06.479Z,1.5
2017-07-24T14:24:06.562Z,1.7
2017-07-24T14:25:06.604Z,1.5
2017-07-24T14:26:06.677Z,1.8
2017-07-24T14:27:06.741Z,1.8
2017-07-24T14:28:06.828Z,1.6
2017-07-24T14:29:06.886Z,2.1
2017-07-24T14:30:06.950Z,1.9
2017-07-24T14:31:07.028Z,1.8
2017-07-24T14:32:07.122Z,1.8
2017-07-24T14:33:07.180Z,1.8
2017-07-24T14:34:09.284Z,2.2
2017-07-24T14:35:07.354Z,1.7
2017-07-24T14:36:07.397Z,1.6
2017-07-24T14:37:08.790Z,2.2
2017-07-24T14:38:11.119Z,1.9
2017-07-24T14:39:08.204Z,2.2
2017-07-24T14:40:11.358Z,2.3
2017-07-24T14:41:07.744Z,1.6
2017-07-24T14:42:07.818Z,1.8
2017-07-24T14:43:07.897Z,2.1
2017-07-24T14:44:07.959Z,2.4
2017-07-24T14:45:08.040Z,1.9
2017-07-24T14:46:11.094Z,1.8
2017-07-24T14:47:08.171Z,2
2017-07-24T14:48:08.253Z,1.7
2017-07-24T14:49:08.321Z,2
2017-07-24T14:50:08.393Z,2.3
2017-07-24T14:51:08.468Z,1.9
2017-07-24T14:52:08.550Z,2.2
2017-07-24T14:53:08.657Z,2.3
2017-07-24T14:54:08.709Z,2.6
2017-07-24T14:55:08.750Z,2
2017-07-24T14:56:08.823Z,2.6
2017-07-24T14:57:08.919Z,2.2
2017-07-24T14:58:08.969Z,2
2017-07-24T15:00:09.125Z,2.2
2017-07-24T15:01:09.190Z,1.6
2017-07-24T15:02:09.268Z,2.3
2017-07-24T15:03:09.342Z,2.1
2017-07-24T15:04:10.700Z,2.4
2017-07-24T15:05:09.483Z,2
2017-07-24T15:06:09.549Z,2
2017-07-24T15:07:09.621Z,2.2
2017-07-24T15:08:09.719Z,1.9
2017-07-24T15:09:09.772Z,1.7
2017-07-24T15:10:09.840Z,1.7
2017-07-24T15:11:09.914Z,2.3
2017-07-24T15:12:10.090Z,2.4
2017-07-24T15:13:10.059Z,2
2017-07-24T15:14:10.135Z,2.5
2017-07-24T15:15:10.202Z,2
2017-07-24T15:16:10.320Z,1.8
2017-07-24T15:17:10.343Z,2
2017-07-24T15:18:10.431Z,1.9
2017-07-24T15:19:10.489Z,2.4
2017-07-24T15:20:12.439Z,2.2
2017-07-24T15:21:10.625Z,1.7
2017-07-24T15:22:10.782Z,1.6
2017-07-24T15:23:11.015Z,1.8
2017-07-24T15:24:12.441Z,1.8
2017-07-24T15:25:10.916Z,1.9
2017-07-24T15:26:11.138Z,2.1
2017-07-24T15:27:11.055Z,2.6
2017-07-24T15:28:11.130Z,2.3
2017-07-24T15:29:11.211Z,2.1
2017-07-24T15:30:11.299Z,2.3
2017-07-24T15:31:13.416Z,2.1
2017-07-24T15:32:11.517Z,2
2017-07-24T15:33:13.870Z,1.7
2017-07-24T15:34:20.958Z,1.8
2017-07-24T15:35:11.638Z,2.1
2017-07-24T15:36:11.718Z,2
2017-07-24T15:37:11.796Z,1.5
2017-07-24T15:38:11.855Z,1.7
2017-07-24T15:39:11.931Z,2.4
2017-07-24T15:40:12.032Z,2.2
2017-07-24T15:41:12.080Z,1.8
2017-07-24T15:42:15.009Z,1.7
2017-07-24T15:43:12.249Z,1.8
2017-07-24T15:44:12.293Z,1.9
2017-07-24T15:45:12.363Z,1.7
2017-07-24T15:46:12.434Z,1.5
2017-07-24T15:47:12.510Z,2
2017-07-24T15:48:12.585Z,1.7
2017-07-24T15:49:12.650Z,1.8
2017-07-24T15:50:12.740Z,1.9
2017-07-24T15:51:15.753Z,1.2
2017-07-24T15:52:12.859Z,1.6
2017-07-24T15:53:12.951Z,1.6
2017-07-24T15:54:16.836Z,1.7
2017-07-24T15:55:13.097Z,1.7
2017-07-24T15:56:13.146Z,1.4
2017-07-24T15:57:13.224Z,1.4
2017-07-24T15:58:13.289Z,1.4
2017-07-24T15:59:13.390Z,1.2
2017-07-24T16:00:16.963Z,1.4
2017-07-24T16:01:14.950Z,1.8
2017-07-24T16:02:13.606Z,1.3
2017-07-24T16:03:16.800Z,1.8
2017-07-24T16:04:13.738Z,1.6
2017-07-24T16:05:13.796Z,1.3
2017-07-24T16:06:13.866Z,1.2
2017-07-24T16:07:13.940Z,1.3
2017-07-24T16:08:14.015Z,1.2
2017-07-24T16:09:15.138Z,1.3
2017-07-24T16:10:14.182Z,1.4
2017-07-24T16:11:14.230Z,1.4
2017-07-24T16:12:14.306Z,1.5
2017-07-24T16:13:14.377Z,1.4
2017-07-24T16:14:15.314Z,1.4
2017-07-24T16:15:14.653Z,1.2
2017-07-24T16:16:14.584Z,1
2017-07-24T16:17:14.675Z,1.5